createdAt,value
2017-12-15T00:00:06.364Z,3.30
2017-12-15T00:02:33.879Z,3.20
2017-12-15T00:05:01.491Z,3.30
2017-12-15T00:07:29.016Z,3.30
2017-12-15T00:09:57.708Z,3.30
2017-12-15T00:12:25.467Z,3.30
2017-12-15T00:14:52.983Z,3.30
2017-12-15T00:17:20.996Z,3.30
2017-12-15T00:19:48.766Z,3.40
2017-12-15T00:22:16.837Z,3.30
2017-12-15T00:24:44.343Z,3.30
2017-12-15T00:27:12.654Z,3.40
2017-12-15T00:29:40.156Z,3.40
2017-12-15T00:32:07.657Z,3.30
2017-12-15T00:34:35.340Z,3.40
2017-12-15T00:37:02.840Z,3.40
2017-12-15T00:39:30.343Z,3.40
2017-12-15T00:41:57.966Z,3.40
2017-12-15T00:44:25.460Z,3.40
2017-12-15T00:46:52.963Z,3.40
2017-12-15T00:49:20.468Z,3.40
2017-12-15T00:51:48.752Z,3.40
2017-12-15T00:54:16.359Z,3.40
2017-12-15T00:56:44.907Z,3.40
2017-12-15T00:59:12.417Z,3.50
2017-12-15T01:01:40.139Z,3.60
2017-12-15T01:04:07.888Z,3.60
2017-12-15T01:06:35.392Z,3.40
2017-12-15T01:09:02.947Z,3.30
2017-12-15T01:11:31.227Z,3.30
2017-12-15T01:13:58.944Z,3.40
2017-12-15T01:16:26.448Z,3.40
2017-12-15T01:18:54.164Z,3.50
2017-12-15T01:21:22.724Z,3.40
2017-12-15T01:23:50.307Z,3.60
2017-12-15T01:26:17.844Z,3.70
2017-12-15T01:28:45.527Z,3.60
2017-12-15T01:31:13.304Z,3.60
2017-12-15T01:33:40.799Z,3.50
2017-12-15T01:36:08.302Z,3.50
2017-12-15T01:38:35.800Z,3.40
2017-12-15T01:41:05.262Z,3.60
2017-12-15T01:43:33.639Z,3.60
2017-12-15T01:46:02.011Z,3.70
2017-12-15T01:48:29.786Z,3.70
2017-12-15T01:50:57.301Z,3.80
2017-12-15T01:53:25.253Z,3.80
2017-12-15T01:55:53.139Z,3.70
2017-12-15T01:58:20.838Z,3.70
2017-12-15T02:00:48.343Z,3.70
2017-12-15T02:03:16.367Z,3.70
2017-12-15T02:05:43.907Z,3.70
2017-12-15T02:08:11.588Z,3.70
2017-12-15T02:10:40.351Z,3.70
2017-12-15T02:13:09.138Z,3.50
2017-12-15T02:15:36.684Z,3.40
2017-12-15T02:18:04.195Z,3.40
2017-12-15T02:20:31.946Z,3.30
2017-12-15T02:22:59.448Z,3.40
2017-12-15T02:25:27.891Z,3.40
2017-12-15T02:27:55.546Z,3.40
2017-12-15T02:30:23.266Z,3.50
2017-12-15T02:32:50.769Z,3.40
2017-12-15T02:35:18.494Z,3.40
2017-12-15T02:37:46.202Z,3.50
2017-12-15T02:40:13.699Z,3.50
2017-12-15T02:42:41.196Z,3.50
2017-12-15T02:45:08.960Z,3.50
2017-12-15T02:47:36.463Z,3.50
2017-12-15T02:50:03.964Z,3.50
2017-12-15T02:52:31.926Z,3.70
2017-12-15T02:54:59.424Z,3.60
2017-12-15T02:57:26.928Z,3.60
2017-12-15T02:59:54.428Z,3.70
2017-12-15T03:02:22.562Z,3.70
2017-12-15T03:04:50.153Z,3.70
2017-12-15T03:07:17.920Z,3.60
2017-12-15T03:09:45.423Z,3.60
2017-12-15T03:12:13.603Z,3.60
2017-12-15T03:14:41.115Z,3.60
2017-12-15T03:17:08.665Z,3.60
2017-12-15T03:19:36.967Z,3.60
2017-12-15T03:22:04.496Z,3.70
2017-12-15T03:24:33.089Z,3.70
2017-12-15T03:27:00.632Z,3.70
2017-12-15T03:29:28.156Z,3.80
2017-12-15T03:31:55.861Z,3.80
2017-12-15T03:34:23.350Z,3.90
2017-12-15T03:36:50.860Z,4.00
2017-12-15T03:39:18.490Z,4.00
2017-12-15T03:41:46.003Z,4.00
2017-12-15T03:44:13.767Z,4.00
2017-12-15T03:46:42.803Z,4.10
2017-12-15T03:49:10.513Z,4.10
2017-12-15T03:51:38.016Z,4.20
2017-12-15T03:54:06.636Z,4.20
2017-12-15T03:56:35.385Z,4.20
2017-12-15T03:59:03.100Z,4.20
2017-12-15T04:01:30.864Z,4.20
2017-12-15T04:03:58.376Z,4.10
2017-12-15T04:06:25.891Z,4.10
2017-12-15T04:08:53.540Z,4.20
2017-12-15T04:11:21.047Z,4.20
2017-12-15T04:13:48.714Z,4.10
2017-12-15T04:16:16.230Z,4.10
2017-12-15T04:18:43.751Z,4.10
2017-12-15T04:21:12.035Z,4.30
2017-12-15T04:23:39.545Z,4.20
2017-12-15T04:26:07.276Z,4.20
2017-12-15T04:28:34.783Z,4.00
2017-12-15T04:31:03.028Z,4.10
2017-12-15T04:33:30.566Z,4.20
2017-12-15T04:35:58.079Z,4.30
2017-12-15T04:38:25.784Z,4.40
2017-12-15T04:40:53.288Z,4.40
2017-12-15T04:43:20.983Z,4.40
2017-12-15T04:45:48.475Z,4.10
2017-12-15T04:48:15.991Z,3.90
2017-12-15T04:50:43.679Z,3.90
2017-12-15T04:53:12.259Z,3.90
2017-12-15T04:55:39.756Z,3.80
2017-12-15T04:58:07.275Z,3.70
2017-12-15T05:00:35.036Z,3.70
2017-12-15T05:03:02.803Z,3.70
2017-12-15T05:05:30.308Z,3.70
2017-12-15T05:07:58.444Z,3.70
2017-12-15T05:10:25.939Z,3.70
2017-12-15T05:12:54.478Z,3.80
2017-12-15T05:15:22.000Z,3.90
2017-12-15T05:17:49.511Z,3.90
2017-12-15T05:20:17.020Z,3.90
2017-12-15T05:22:44.609Z,3.80
2017-12-15T05:25:12.369Z,3.80
2017-12-15T05:27:39.863Z,3.90
2017-12-15T05:30:07.678Z,3.90
2017-12-15T05:32:35.348Z,3.90
2017-12-15T05:35:03.123Z,3.80
2017-12-15T05:37:30.879Z,3.90
2017-12-15T05:39:58.392Z,3.90
2017-12-15T05:42:25.887Z,3.90
2017-12-15T05:44:53.788Z,3.80
2017-12-15T05:47:21.359Z,3.70
2017-12-15T05:49:48.872Z,3.80
2017-12-15T05:52:16.372Z,3.80
2017-12-15T05:54:44.645Z,3.70
2017-12-15T05:57:12.192Z,3.60
2017-12-15T05:59:39.815Z,3.70
2017-12-15T06:02:07.311Z,3.70
2017-12-15T06:04:34.803Z,3.70
2017-12-15T06:07:02.483Z,3.60
2017-12-15T06:09:31.201Z,3.70
2017-12-15T06:11:58.960Z,3.70
2017-12-15T06:14:26.451Z,3.70
2017-12-15T06:16:54.149Z,3.60
2017-12-15T06:19:21.654Z,3.60
2017-12-15T06:21:49.160Z,3.70
2017-12-15T06:24:16.660Z,3.70
2017-12-15T06:26:44.308Z,3.70
2017-12-15T06:29:11.823Z,3.80
2017-12-15T06:31:40.140Z,3.70
2017-12-15T06:34:07.650Z,3.70
2017-12-15T06:36:35.160Z,3.70
2017-12-15T06:39:02.823Z,3.70
2017-12-15T06:41:30.888Z,2.00
2017-12-15T06:43:58.651Z,4.80
2017-12-15T06:46:26.191Z,5.10
2017-12-15T06:48:53.871Z,5.20
2017-12-15T06:51:21.376Z,5.20
2017-12-15T06:53:48.876Z,5.30
2017-12-15T06:56:16.373Z,5.10
2017-12-15T06:58:44.705Z,4.50
2017-12-15T07:01:12.203Z,4.50
2017-12-15T07:03:39.723Z,4.60
2017-12-15T07:06:07.252Z,4.60
2017-12-15T07:08:34.760Z,4.50
2017-12-15T07:11:02.272Z,4.20
2017-12-15T07:13:29.972Z,4.10
2017-12-15T07:15:57.735Z,4.10
2017-12-15T07:18:25.500Z,4.10
2017-12-15T07:20:53.267Z,4.10
2017-12-15T07:23:21.031Z,4.00
2017-12-15T07:25:48.523Z,3.90
2017-12-15T07:28:16.247Z,3.90
2017-12-15T07:30:44.012Z,4.00
2017-12-15T07:33:11.778Z,4.00
2017-12-15T07:35:39.268Z,4.00
2017-12-15T07:38:06.776Z,3.90
2017-12-15T07:40:34.404Z,3.80
2017-12-15T07:43:01.908Z,3.80
2017-12-15T07:45:29.675Z,3.90
2017-12-15T07:47:57.178Z,3.90
2017-12-15T07:50:24.679Z,3.70
2017-12-15T07:52:52.176Z,3.60
2017-12-15T08:12:37.230Z,4.00
2017-12-15T08:15:04.749Z,3.90
2017-12-15T08:17:32.396Z,4.10
2017-12-15T08:19:59.904Z,3.90
2017-12-15T08:22:27.408Z,4.00
2017-12-15T08:24:54.911Z,3.70
2017-12-15T08:27:22.428Z,3.80
2017-12-15T08:29:50.032Z,3.90
2017-12-15T08:32:17.787Z,4.00
2017-12-15T08:34:45.298Z,3.80
2017-12-15T08:37:13.016Z,3.70
2017-12-15T08:39:41.780Z,3.80
2017-12-15T08:42:09.260Z,3.80
2017-12-15T08:44:36.768Z,3.80
2017-12-15T08:47:04.272Z,3.80
2017-12-15T08:49:32.652Z,3.80
2017-12-15T08:52:00.203Z,3.80
2017-12-15T08:54:27.975Z,4.00
2017-12-15T08:56:56.393Z,3.80
2017-12-15T08:59:23.890Z,3.80
2017-12-15T09:01:51.392Z,3.80
2017-12-15T09:04:23.275Z,3.80
2017-12-15T09:06:51.686Z,3.90
2017-12-15T09:09:20.088Z,3.80
2017-12-15T09:11:47.843Z,3.90
2017-12-15T09:14:15.611Z,3.90
2017-12-15T09:16:43.667Z,3.80
2017-12-15T09:19:11.156Z,3.70
2017-12-15T09:21:39.295Z,3.70
2017-12-15T09:24:06.780Z,3.70
2017-12-15T09:26:35.031Z,3.80
2017-12-15T09:29:03.053Z,3.90
2017-12-15T09:31:31.223Z,3.70
2017-12-15T09:33:58.957Z,3.70
2017-12-15T09:36:26.466Z,3.70
2017-12-15T09:38:53.976Z,3.70
2017-12-15T09:41:21.479Z,3.70
2017-12-15T09:43:49.106Z,3.80
2017-12-15T09:46:16.555Z,3.80
2017-12-15T09:48:45.564Z,3.90
2017-12-15T09:51:13.064Z,3.90
2017-12-15T09:53:41.336Z,3.90
2017-12-15T09:56:08.837Z,4.00
2017-12-15T09:58:36.349Z,4.10
2017-12-15T10:01:03.844Z,4.10
2017-12-15T10:03:31.365Z,3.90
2017-12-15T10:05:59.872Z,3.90
2017-12-15T10:08:27.637Z,3.80
2017-12-15T10:10:55.140Z,3.90
2017-12-15T10:13:22.851Z,4.00
2017-12-15T10:15:50.357Z,3.90
2017-12-15T10:18:18.179Z,3.60
2017-12-15T10:20:45.689Z,3.90
2017-12-15T10:23:14.217Z,3.90
2017-12-15T10:25:41.728Z,3.90
2017-12-15T10:28:09.271Z,4.00
2017-12-15T10:30:36.780Z,4.00
2017-12-15T10:33:04.411Z,4.00
2017-12-15T10:35:31.931Z,3.90
2017-12-15T10:37:59.422Z,3.90
2017-12-15T10:40:27.744Z,3.90
2017-12-15T10:42:56.019Z,3.90
2017-12-15T10:45:23.524Z,3.80
2017-12-15T10:47:51.340Z,4.10
2017-12-15T10:50:19.185Z,4.20
2017-12-15T10:52:46.724Z,4.10
2017-12-15T10:55:14.236Z,3.90
2017-12-15T10:57:41.814Z,3.80
2017-12-15T11:00:09.851Z,3.70
2017-12-15T11:02:38.315Z,3.80
2017-12-15T11:05:05.811Z,3.80
2017-12-15T11:07:33.532Z,3.70
2017-12-15T11:10:01.044Z,3.60
2017-12-15T11:12:28.600Z,3.60
2017-12-15T11:14:56.038Z,3.60
2017-12-15T11:17:24.235Z,3.60
2017-12-15T11:19:52.143Z,3.70
2017-12-15T11:22:19.740Z,3.50
2017-12-15T11:24:48.011Z,3.50
2017-12-15T11:27:15.505Z,3.50
2017-12-15T11:29:43.704Z,3.60
2017-12-15T11:32:11.205Z,3.50
2017-12-15T11:34:39.667Z,3.60
2017-12-15T11:37:07.185Z,3.70
2017-12-15T11:39:34.865Z,3.70
2017-12-15T11:42:02.651Z,3.60
2017-12-15T11:44:30.151Z,3.60
2017-12-15T11:46:57.845Z,3.60
2017-12-15T11:49:25.636Z,3.60
2017-12-15T11:51:53.702Z,3.50
2017-12-15T11:54:21.200Z,3.50
2017-12-15T11:56:48.781Z,3.50
2017-12-15T11:59:16.287Z,3.60
2017-12-15T12:01:44.480Z,3.60
2017-12-15T12:04:12.025Z,3.50
2017-12-15T12:06:40.641Z,3.50
2017-12-15T12:09:08.553Z,3.50
2017-12-15T12:11:36.123Z,3.60
2017-12-15T12:14:03.634Z,3.70
2017-12-15T12:16:31.315Z,3.70
2017-12-15T12:18:58.815Z,3.60
2017-12-15T12:21:26.314Z,3.60
2017-12-15T12:23:54.599Z,3.60
2017-12-15T12:26:22.396Z,3.60
2017-12-15T12:28:50.160Z,3.80
2017-12-15T12:31:18.102Z,3.90
2017-12-15T12:33:46.298Z,3.90
2017-12-15T12:36:14.248Z,3.90
2017-12-15T12:38:41.826Z,3.90
2017-12-15T12:41:09.560Z,3.90
2017-12-15T12:43:37.666Z,3.80
2017-12-15T12:46:05.163Z,3.90
2017-12-15T12:48:32.860Z,3.90
2017-12-15T12:51:00.356Z,4.00
2017-12-15T12:53:29.740Z,3.90
2017-12-15T12:55:57.375Z,3.90
2017-12-15T12:58:24.872Z,3.80
2017-12-15T13:00:52.384Z,3.70
2017-12-15T13:03:19.987Z,3.80
2017-12-15T13:05:48.267Z,3.80
2017-12-15T13:08:16.398Z,3.90
2017-12-15T13:10:44.001Z,4.00
2017-12-15T13:13:12.991Z,4.10
2017-12-15T13:32:58.809Z,4.20
2017-12-15T13:35:26.531Z,3.20
2017-12-15T13:37:54.039Z,4.10
2017-12-15T13:40:23.027Z,4.10
2017-12-15T13:42:50.523Z,4.20
2017-12-15T13:45:18.217Z,4.20
2017-12-15T13:47:45.721Z,4.40
2017-12-15T13:50:13.221Z,4.30
2017-12-15T13:52:40.856Z,4.40
2017-12-15T13:55:08.356Z,4.10
2017-12-15T13:57:35.872Z,4.00
2017-12-15T14:00:03.367Z,4.10
2017-12-15T14:02:31.011Z,4.00
2017-12-15T14:04:58.775Z,4.10
2017-12-15T14:07:26.284Z,4.10
2017-12-15T14:09:53.995Z,4.10
2017-12-15T14:12:21.500Z,4.10
2017-12-15T14:14:49.220Z,4.00
2017-12-15T14:17:16.724Z,4.00
2017-12-15T14:19:44.413Z,3.90
2017-12-15T14:22:11.904Z,3.90
2017-12-15T14:24:39.411Z,4.10
2017-12-15T14:27:06.907Z,4.10
2017-12-15T14:29:34.407Z,4.20
2017-12-15T14:32:02.675Z,4.10
2017-12-15T14:34:30.396Z,4.00
2017-12-15T14:36:57.891Z,3.90
2017-12-15T14:39:25.805Z,3.90
2017-12-15T14:41:53.388Z,3.90
2017-12-15T14:44:20.892Z,3.90
2017-12-15T14:46:48.607Z,3.90
2017-12-15T14:49:16.126Z,4.00
2017-12-15T14:51:44.016Z,3.90
2017-12-15T14:54:12.515Z,3.90
2017-12-15T14:56:40.019Z,3.90
2017-12-15T14:59:07.732Z,3.80
2017-12-15T15:01:35.237Z,3.80
2017-12-15T15:04:02.728Z,3.90
2017-12-15T15:06:30.231Z,4.10
2017-12-15T15:08:58.610Z,4.10
2017-12-15T15:11:26.252Z,4.20
2017-12-15T15:13:55.034Z,4.20
2017-12-15T15:16:22.695Z,4.10
2017-12-15T15:18:50.455Z,4.10
2017-12-15T15:21:18.219Z,3.90
2017-12-15T15:23:45.823Z,3.90
2017-12-15T15:26:14.501Z,3.90
2017-12-15T15:28:41.994Z,3.80
2017-12-15T15:31:09.495Z,3.80
2017-12-15T15:33:37.000Z,3.70
2017-12-15T15:36:04.507Z,3.80
2017-12-15T15:38:32.000Z,3.70
2017-12-15T15:40:59.712Z,3.60
2017-12-15T15:43:27.788Z,3.60
2017-12-15T15:45:55.283Z,3.80
2017-12-15T15:48:22.804Z,3.70
2017-12-15T15:50:51.300Z,3.70
2017-12-15T15:53:18.841Z,3.80
2017-12-15T15:55:46.603Z,3.80
2017-12-15T15:58:14.108Z,3.80
2017-12-15T16:00:42.000Z,3.80
2017-12-15T16:03:09.585Z,3.70
2017-12-15T16:05:37.092Z,3.70
2017-12-15T16:08:04.632Z,3.70
2017-12-15T16:10:32.142Z,3.80
2017-12-15T16:12:59.736Z,4.70
2017-12-15T16:15:27.244Z,5.10
2017-12-15T16:17:54.939Z,5.10
2017-12-15T16:20:23.088Z,6.00
2017-12-15T16:22:50.587Z,6.20
2017-12-15T16:25:18.192Z,5.70
2017-12-15T16:27:45.696Z,6.40
2017-12-15T16:30:13.195Z,7.00
2017-12-15T16:32:40.803Z,4.80
2017-12-15T16:35:08.587Z,4.20
2017-12-15T16:37:36.104Z,4.00
2017-12-15T16:40:04.199Z,3.80
2017-12-15T16:42:31.703Z,3.70
2017-12-15T16:44:59.415Z,3.70
2017-12-15T16:47:27.175Z,3.70
2017-12-15T16:49:54.692Z,3.70
2017-12-15T16:52:23.026Z,3.60
2017-12-15T16:54:50.785Z,4.00
2017-12-15T16:57:18.294Z,5.50
2017-12-15T16:59:46.209Z,5.20
2017-12-15T17:02:13.711Z,4.80
2017-12-15T17:04:41.216Z,4.80
2017-12-15T17:07:08.715Z,4.80
2017-12-15T17:09:37.729Z,4.70
2017-12-15T17:12:05.227Z,5.00
2017-12-15T17:14:33.836Z,4.70
2017-12-15T17:17:02.491Z,4.60
2017-12-15T17:19:29.996Z,4.60
2017-12-15T17:21:59.227Z,4.60
2017-12-15T17:24:26.733Z,5.00
2017-12-15T17:26:54.467Z,4.60
2017-12-15T17:29:21.964Z,3.90
2017-12-15T17:31:49.885Z,3.70
2017-12-15T17:34:17.776Z,3.50
2017-12-15T17:36:45.300Z,3.60
2017-12-15T17:39:13.800Z,3.50
2017-12-15T17:41:41.357Z,3.50
2017-12-15T17:44:09.123Z,3.50
2017-12-15T17:46:36.640Z,3.40
2017-12-15T17:49:04.135Z,3.40
2017-12-15T17:51:31.651Z,3.50
2017-12-15T17:53:59.268Z,3.50
2017-12-15T17:56:26.764Z,3.40
2017-12-15T17:58:55.303Z,3.40
2017-12-15T18:01:23.750Z,3.40
2017-12-15T18:03:51.245Z,3.50
2017-12-15T18:06:20.271Z,3.60
2017-12-15T18:08:47.992Z,3.60
2017-12-15T18:11:15.762Z,3.50
2017-12-15T18:13:43.511Z,3.50
2017-12-15T18:16:11.787Z,3.60
2017-12-15T18:18:39.283Z,3.50
2017-12-15T18:21:07.516Z,3.50
2017-12-15T18:23:35.023Z,3.50
2017-12-15T18:26:03.295Z,3.70
2017-12-15T18:28:31.016Z,3.60
2017-12-15T18:30:59.147Z,3.60
2017-12-15T18:33:27.041Z,3.60
2017-12-15T18:35:54.619Z,3.60
2017-12-15T18:38:22.136Z,4.30
2017-12-15T18:40:50.771Z,4.30
2017-12-15T18:43:18.276Z,5.20
2017-12-15T18:45:45.772Z,5.00
2017-12-15T18:48:13.275Z,5.00
2017-12-15T18:50:41.544Z,5.30
2017-12-15T18:53:09.243Z,4.60
2017-12-15T18:55:36.734Z,4.30
2017-12-15T18:58:04.243Z,4.30
2017-12-15T19:00:32.163Z,3.90
2017-12-15T19:02:59.704Z,3.90
2017-12-15T19:05:27.468Z,3.90
2017-12-15T19:07:55.723Z,4.00
2017-12-15T19:10:23.304Z,4.00
2017-12-15T19:12:50.829Z,4.00
2017-12-15T19:15:18.338Z,4.00
2017-12-15T19:17:46.256Z,3.60
2017-12-15T19:20:14.446Z,3.60
2017-12-15T19:22:42.118Z,3.70
2017-12-15T19:25:09.891Z,3.80
2017-12-15T19:27:37.779Z,3.70
2017-12-15T19:30:05.290Z,3.70
2017-12-15T19:32:32.867Z,3.50
2017-12-15T19:35:00.635Z,3.60
2017-12-15T19:37:28.395Z,3.50
2017-12-15T19:39:56.716Z,3.50
2017-12-15T19:42:24.236Z,3.50
2017-12-15T19:44:51.940Z,3.50
2017-12-15T19:47:19.439Z,3.60
2017-12-15T19:49:47.344Z,3.60
2017-12-15T19:52:16.085Z,3.60
2017-12-15T19:54:43.898Z,3.60
2017-12-15T19:57:12.353Z,3.60
2017-12-15T19:59:40.464Z,3.50
2017-12-15T20:02:08.489Z,3.60
2017-12-15T20:04:36.008Z,3.60
2017-12-15T20:07:03.610Z,3.70
2017-12-15T20:09:32.090Z,3.70
2017-12-15T20:11:59.850Z,3.60
2017-12-15T20:14:27.373Z,3.70
2017-12-15T20:16:55.383Z,3.60
2017-12-15T20:19:22.880Z,3.60
2017-12-15T20:21:50.783Z,3.60
2017-12-15T20:24:18.276Z,3.70
2017-12-15T20:26:46.436Z,3.60
2017-12-15T20:29:13.956Z,3.70
2017-12-15T20:31:41.977Z,3.70
2017-12-15T20:34:09.488Z,3.70
2017-12-15T20:36:37.004Z,3.70
2017-12-15T20:39:04.513Z,3.70
2017-12-15T20:41:32.096Z,3.70
2017-12-15T20:43:59.856Z,3.70
2017-12-15T20:46:27.360Z,3.70
2017-12-15T20:48:55.287Z,3.60
2017-12-15T20:51:22.804Z,3.80
2017-12-15T20:53:51.105Z,3.80
2017-12-15T20:56:19.220Z,4.00
2017-12-15T20:58:46.733Z,3.90
2017-12-15T21:01:14.235Z,3.90
2017-12-15T21:03:41.756Z,3.90
2017-12-15T21:06:09.255Z,3.90
2017-12-15T21:08:36.860Z,3.90
2017-12-15T21:11:05.644Z,3.90
2017-12-15T21:13:33.207Z,3.90
2017-12-15T21:16:02.678Z,3.80
2017-12-15T21:18:30.183Z,3.90
2017-12-15T21:20:57.712Z,3.90
2017-12-15T21:23:25.316Z,3.80
2017-12-15T21:25:53.504Z,3.80
2017-12-15T21:28:21.239Z,3.80
2017-12-15T21:30:48.903Z,3.80
2017-12-15T21:33:16.796Z,3.70
2017-12-15T21:35:44.301Z,3.80
2017-12-15T21:38:11.885Z,3.90
2017-12-15T21:40:39.406Z,3.80
2017-12-15T21:43:07.687Z,3.80
2017-12-15T21:45:35.361Z,3.80
2017-12-15T21:48:03.560Z,3.90
2017-12-15T21:50:31.396Z,3.90
2017-12-15T21:52:58.903Z,4.00
2017-12-15T21:55:26.524Z,4.00
2017-12-15T21:57:54.027Z,3.90
2017-12-15T22:00:21.537Z,3.90
2017-12-15T22:02:49.035Z,3.80
2017-12-15T22:05:16.650Z,3.80
2017-12-15T22:07:44.152Z,4.00
2017-12-15T22:10:11.651Z,4.00
2017-12-15T22:12:39.160Z,3.90
2017-12-15T22:15:06.667Z,3.90
2017-12-15T22:17:34.266Z,4.20
2017-12-15T22:20:01.788Z,4.30
2017-12-15T22:22:29.476Z,4.10
2017-12-15T22:24:56.979Z,4.10
2017-12-15T22:27:24.488Z,4.20
2017-12-15T22:29:52.456Z,4.00
2017-12-15T22:32:20.234Z,3.90
2017-12-15T22:34:47.738Z,3.90
2017-12-15T22:37:16.244Z,4.00
2017-12-15T22:39:43.740Z,4.00
2017-12-15T22:42:11.241Z,4.00
2017-12-15T22:44:38.845Z,3.90
2017-12-15T22:47:06.359Z,3.90
2017-12-15T22:49:33.943Z,4.00
2017-12-15T22:52:02.217Z,4.00
2017-12-15T22:54:29.821Z,4.00
2017-12-15T22:56:58.259Z,3.90
2017-12-15T22:59:27.243Z,4.10
2017-12-15T23:01:56.173Z,4.00
2017-12-15T23:04:24.137Z,4.10
2017-12-15T23:06:51.935Z,4.10
2017-12-15T23:09:20.203Z,4.10
2017-12-15T23:11:48.123Z,4.10
2017-12-15T23:14:15.742Z,4.00
2017-12-15T23:16:44.000Z,4.00
2017-12-15T23:19:11.736Z,4.00
2017-12-15T23:21:39.508Z,4.00
2017-12-15T23:24:07.504Z,4.00
2017-12-15T23:26:35.405Z,4.00
2017-12-15T23:29:02.969Z,3.90
2017-12-15T23:31:31.019Z,3.90
2017-12-15T23:33:59.372Z,3.90
2017-12-15T23:36:27.282Z,4.00
2017-12-15T23:38:54.788Z,4.10
2017-12-15T23:41:22.315Z,4.00
2017-12-15T23:43:50.583Z,4.00
2017-12-15T23:46:19.651Z,4.00
2017-12-15T23:48:47.848Z,3.90
2017-12-15T23:51:15.421Z,3.90
2017-12-15T23:53:43.183Z,4.00
2017-12-15T23:56:22.590Z,3.90
2017-12-15T23:58:50.449Z,4.00
